sensor_id;sensor_type;location;lat;lon;timestamp;pressure;altitude;pressure_sealevel;temperature;humidity
76592;BME280;65481;47.600;19.682;2024-03-23T00:53:42;99973.56;;;6.82;100.00
76592;BME280;65481;47.600;19.682;2024-03-23T00:58:43;99967.81;;;6.60;100.00
76592;BME280;65481;47.600;19.682;2024-03-23T01:03:43;99961.78;;;6.53;100.00
76592;BME280;65481;47.600;19.682;2024-03-23T01:08:44;99950.88;;;6.56;100.00
76592;BME280;65481;47.600;19.682;2024-03-23T01:13:45;99941.78;;;6.59;100.00
76592;BME280;65481;47.600;19.682;2024-03-23T01:18:46;99936.75;;;6.57;100.00
76592;BME280;65481;47.600;19.682;2024-03-23T01:23:50;99928.13;;;6.43;100.00
76592;BME280;65481;47.600;19.682;2024-03-23T01:28:51;99929.38;;;6.41;100.00
76592;BME280;65481;47.600;19.682;2024-03-23T01:33:52;99919.88;;;6.46;100.00
76592;BME280;65481;47.600;19.682;2024-03-23T01:38:52;99915.88;;;6.37;100.00
76592;BME280;65481;47.600;19.682;2024-03-23T01:43:55;99917.50;;;6.38;100.00
76592;BME280;65481;47.600;19.682;2024-03-23T01:48:55;99903.38;;;6.32;100.00
76592;BME280;65481;47.600;19.682;2024-03-23T01:53:56;99899.38;;;6.23;100.00
76592;BME280;65481;47.600;19.682;2024-03-23T01:58:57;99894.78;;;6.12;100.00
76592;BME280;65481;47.600;19.682;2024-03-23T02:03:58;99899.84;;;6.06;100.00
76592;BME280;65481;47.600;19.682;2024-03-23T02:08:59;99903.66;;;5.97;100.00
76592;BME280;65481;47.600;19.682;2024-03-23T02:14:00;99899.88;;;5.73;100.00
76592;BME280;65481;47.600;19.682;2024-03-23T02:19:00;99893.44;;;5.62;100.00
76592;BME280;65481;47.600;19.682;2024-03-23T02:24:01;99892.44;;;5.56;100.00
76592;BME280;65481;47.600;19.682;2024-03-23T02:29:02;99898.69;;;5.62;100.00
76592;BME280;65481;47.600;19.682;2024-03-23T02:34:02;99887.00;;;5.58;100.00
76592;BME280;65481;47.600;19.682;2024-03-23T02:39:04;99875.94;;;5.69;100.00
76592;BME280;65481;47.600;19.682;2024-03-23T02:44:05;99869.44;;;5.79;100.00
76592;BME280;65481;47.600;19.682;2024-03-23T02:49:07;99864.63;;;5.75;100.00
76592;BME280;65481;47.600;19.682;2024-03-23T02:54:08;99855.19;;;5.74;100.00
76592;BME280;65481;47.600;19.682;2024-03-23T02:59:09;99856.22;;;5.46;100.00
76592;BME280;65481;47.600;19.682;2024-03-23T03:04:10;99841.13;;;5.22;100.00
76592;BME280;65481;47.600;19.682;2024-03-23T03:09:10;99847.38;;;5.14;100.00
76592;BME280;65481;47.600;19.682;2024-03-23T03:14:11;99842.75;;;5.23;100.00
76592;BME280;65481;47.600;19.682;2024-03-23T03:19:12;99839.13;;;5.10;100.00
76592;BME280;65481;47.600;19.682;2024-03-23T03:24:12;99834.09;;;5.09;100.00
76592;BME280;65481;47.600;19.682;2024-03-23T03:29:13;99829.88;;;5.14;100.00
76592;BME280;65481;47.600;19.682;2024-03-23T03:34:14;99830.47;;;5.17;100.00
76592;BME280;65481;47.600;19.682;2024-03-23T03:39:14;99828.66;;;5.10;100.00
76592;BME280;65481;47.600;19.682;2024-03-23T03:44:16;99824.66;;;5.08;100.00
76592;BME280;65481;47.600;19.682;2024-03-23T03:49:17;99817.59;;;5.28;100.00
76592;BME280;65481;47.600;19.682;2024-03-23T03:54:18;99825.03;;;5.31;100.00
76592;BME280;65481;47.600;19.682;2024-03-23T03:59:18;99822.44;;;5.38;100.00
76592;BME280;65481;47.600;19.682;2024-03-23T04:04:20;99822.81;;;5.35;100.00
76592;BME280;65481;47.600;19.682;2024-03-23T04:09:22;99820.63;;;5.19;100.00
76592;BME280;65481;47.600;19.682;2024-03-23T04:14:23;99810.38;;;4.97;100.00
76592;BME280;65481;47.600;19.682;2024-03-23T04:19:24;99809.34;;;4.84;100.00
76592;BME280;65481;47.600;19.682;2024-03-23T04:24:25;99811.75;;;4.93;100.00
76592;BME280;65481;47.600;19.682;2024-03-23T04:29:27;99807.94;;;4.95;100.00
76592;BME280;65481;47.600;19.682;2024-03-23T04:34:28;99806.34;;;5.08;100.00
76592;BME280;65481;47.600;19.682;2024-03-23T04:39:28;99799.88;;;5.24;100.00
76592;BME280;65481;47.600;19.682;2024-03-23T04:44:29;99797.69;;;5.27;100.00
76592;BME280;65481;47.600;19.682;2024-03-23T04:49:31;99793.66;;;5.18;100.00
76592;BME280;65481;47.600;19.682;2024-03-23T04:54:32;99788.44;;;5.11;100.00
76592;BME280;65481;47.600;19.682;2024-03-23T04:59:34;99794.88;;;5.15;100.00
76592;BME280;65481;47.600;19.682;2024-03-23T05:04:35;99791.06;;;5.05;100.00
76592;BME280;65481;47.600;19.682;2024-03-23T05:09:37;99776.56;;;5.15;100.00
76592;BME280;65481;47.600;19.682;2024-03-23T05:14:38;99775.94;;;5.27;100.00
76592;BME280;65481;47.600;19.682;2024-03-23T05:19:39;99773.72;;;5.37;100.00
76592;BME280;65481;47.600;19.682;2024-03-23T05:24:39;99775.47;;;5.57;100.00
76592;BME280;65481;47.600;19.682;2024-03-23T05:29:40;99770.59;;;5.74;100.00
76592;BME280;65481;47.600;19.682;2024-03-23T05:34:41;99773.97;;;5.88;100.00
76592;BME280;65481;47.600;19.682;2024-03-23T05:39:42;99775.25;;;6.24;100.00
76592;BME280;65481;47.600;19.682;2024-03-23T05:44:46;99781.03;;;6.65;100.00
76592;BME280;65481;47.600;19.682;2024-03-23T05:49:47;99774.13;;;6.96;100.00
76592;BME280;65481;47.600;19.682;2024-03-23T05:54:48;99769.03;;;7.26;100.00
76592;BME280;65481;47.600;19.682;2024-03-23T05:59:49;99769.47;;;7.42;100.00
76592;BME280;65481;47.600;19.682;2024-03-23T06:04:50;99775.09;;;7.64;100.00
76592;BME280;65481;47.600;19.682;2024-03-23T06:09:50;99773.25;;;8.02;100.00
76592;BME280;65481;47.600;19.682;2024-03-23T06:14:51;99769.69;;;8.27;100.00
76592;BME280;65481;47.600;19.682;2024-03-23T06:19:52;99766.19;;;8.45;100.00
76592;BME280;65481;47.600;19.682;2024-03-23T06:24:52;99753.56;;;8.66;100.00
76592;BME280;65481;47.600;19.682;2024-03-23T06:29:53;99761.25;;;8.91;100.00
76592;BME280;65481;47.600;19.682;2024-03-23T06:34:55;99749.84;;;9.09;100.00
76592;BME280;65481;47.600;19.682;2024-03-23T06:39:56;99751.53;;;9.27;100.00
76592;BME280;65481;47.600;19.682;2024-03-23T06:44:59;99739.63;;;9.36;100.00
76592;BME280;65481;47.600;19.682;2024-03-23T09:24:28;99552.22;;;19.53;56.83
76592;BME280;65481;47.600;19.682;2024-03-23T09:29:28;99547.94;;;20.87;54.10
76592;BME280;65481;47.600;19.682;2024-03-23T09:34:29;99537.19;;;21.48;52.72
76592;BME280;65481;47.600;19.682;2024-03-23T09:39:30;99540.09;;;21.17;51.81
76592;BME280;65481;47.600;19.682;2024-03-23T09:50:54;99514.28;;;21.77;50.09
76592;BME280;65481;47.600;19.682;2024-03-23T09:55:55;99501.66;;;21.78;48.80
76592;BME280;65481;47.600;19.682;2024-03-23T10:00:55;99492.75;;;21.95;47.92
76592;BME280;65481;47.600;19.682;2024-03-23T10:06:03;99486.09;;;22.31;47.62
76592;BME280;65481;47.600;19.682;2024-03-23T10:11:23;99472.84;;;24.40;42.29
76592;BME280;65481;47.600;19.682;2024-03-23T10:16:26;99466.00;;;25.40;37.77
76592;BME280;65481;47.600;19.682;2024-03-23T10:21:28;99457.03;;;25.36;35.98
76592;BME280;65481;47.600;19.682;2024-03-23T10:26:28;99456.47;;;24.20;35.71
76592;BME280;65481;47.600;19.682;2024-03-23T10:31:31;99453.00;;;24.20;35.97
76592;BME280;65481;47.600;19.682;2024-03-23T10:36:32;99440.13;;;24.13;34.59
76592;BME280;65481;47.600;19.682;2024-03-23T10:41:34;99445.00;;;24.48;35.10
76592;BME280;65481;47.600;19.682;2024-03-23T10:53:06;99425.97;;;25.43;29.46
76592;BME280;65481;47.600;19.682;2024-03-23T10:58:08;99418.00;;;25.18;29.40
76592;BME280;65481;47.600;19.682;2024-03-23T11:03:33;99408.94;;;24.82;32.24
76592;BME280;65481;47.600;19.682;2024-03-23T11:08:38;99386.63;;;24.28;33.67
76592;BME280;65481;47.600;19.682;2024-03-23T11:13:39;99386.22;;;23.76;33.94
76592;BME280;65481;47.600;19.682;2024-03-23T11:18:40;99376.47;;;23.13;35.12
76592;BME280;65481;47.600;19.682;2024-03-23T11:23:42;99363.09;;;22.58;36.02
76592;BME280;65481;47.600;19.682;2024-03-23T11:28:42;99354.09;;;22.33;37.31
76592;BME280;65481;47.600;19.682;2024-03-23T11:33:44;99348.34;;;22.64;37.03
76592;BME280;65481;47.600;19.682;2024-03-23T11:38:45;99331.94;;;22.91;39.22
76592;BME280;65481;47.600;19.682;2024-03-23T11:43:45;99334.66;;;23.03;37.65
76592;BME280;65481;47.600;19.682;2024-03-23T11:48:50;99331.19;;;22.35;38.88
76592;BME280;65481;47.600;19.682;2024-03-23T11:53:51;99315.44;;;22.46;38.85
76592;BME280;65481;47.600;19.682;2024-03-23T11:58:52;99306.91;;;22.65;39.22
76592;BME280;65481;47.600;19.682;2024-03-23T12:03:53;99286.00;;;22.50;39.05
76592;BME280;65481;47.600;19.682;2024-03-23T12:09:05;99275.00;;;22.43;39.36
76592;BME280;65481;47.600;19.682;2024-03-23T12:14:06;99280.06;;;22.23;39.07
76592;BME280;65481;47.600;19.682;2024-03-23T12:19:07;99265.19;;;22.26;38.52
76592;BME280;65481;47.600;19.682;2024-03-23T12:24:08;99259.19;;;22.41;37.92
76592;BME280;65481;47.600;19.682;2024-03-23T12:29:08;99258.34;;;22.28;38.39
76592;BME280;65481;47.600;19.682;2024-03-23T12:34:12;99248.00;;;22.39;40.06
76592;BME280;65481;47.600;19.682;2024-03-23T12:39:13;99240.94;;;22.34;39.27
76592;BME280;65481;47.600;19.682;2024-03-23T12:44:14;99228.69;;;22.03;39.13
76592;BME280;65481;47.600;19.682;2024-03-23T12:49:15;99224.47;;;21.81;39.77
76592;BME280;65481;47.600;19.682;2024-03-23T12:54:16;99212.69;;;21.73;40.60
76592;BME280;65481;47.600;19.682;2024-03-23T12:59:16;99199.59;;;21.72;41.32
76592;BME280;65481;47.600;19.682;2024-03-23T13:04:18;99197.91;;;21.37;41.05
76592;BME280;65481;47.600;19.682;2024-03-23T13:09:20;99191.72;;;21.15;42.14
76592;BME280;65481;47.600;19.682;2024-03-23T13:14:21;99187.13;;;20.86;42.71
76592;BME280;65481;47.600;19.682;2024-03-23T13:19:23;99186.56;;;20.63;41.83
76592;BME280;65481;47.600;19.682;2024-03-23T13:24:27;99171.91;;;20.60;42.95
76592;BME280;65481;47.600;19.682;2024-03-23T13:29:28;99168.44;;;20.60;43.08
76592;BME280;65481;47.600;19.682;2024-03-23T13:34:29;99164.41;;;20.45;43.57
76592;BME280;65481;47.600;19.682;2024-03-23T13:39:30;99154.50;;;20.27;44.54
76592;BME280;65481;47.600;19.682;2024-03-23T16:33:02;99030.66;;;17.65;53.28
76592;BME280;65481;47.600;19.682;2024-03-23T16:38:02;99039.09;;;17.59;53.48
76592;BME280;65481;47.600;19.682;2024-03-23T16:43:03;99037.44;;;17.49;53.90
76592;BME280;65481;47.600;19.682;2024-03-23T16:48:03;99035.41;;;17.32;54.54
76592;BME280;65481;47.600;19.682;2024-03-23T16:53:04;99042.09;;;17.20;54.89
76592;BME280;65481;47.600;19.682;2024-03-23T16:58:05;99036.00;;;17.06;55.09
76592;BME280;65481;47.600;19.682;2024-03-23T17:03:05;99046.66;;;16.92;55.24
76592;BME280;65481;47.600;19.682;2024-03-23T17:08:06;99046.56;;;16.83;55.55
76592;BME280;65481;47.600;19.682;2024-03-23T17:13:07;99046.28;;;16.71;55.80
76592;BME280;65481;47.600;19.682;2024-03-23T17:18:07;99041.75;;;16.57;56.22
76592;BME280;65481;47.600;19.682;2024-03-23T17:23:10;99033.00;;;16.43;56.72
76592;BME280;65481;47.600;19.682;2024-03-23T17:28:11;99012.88;;;16.23;57.07
76592;BME280;65481;47.600;19.682;2024-03-23T17:33:15;99011.94;;;15.99;58.08
76592;BME280;65481;47.600;19.682;2024-03-23T17:38:17;98998.28;;;15.73;58.96
76592;BME280;65481;47.600;19.682;2024-03-23T17:43:17;98990.56;;;15.57;59.43
76592;BME280;65481;47.600;19.682;2024-03-23T17:48:18;98997.84;;;15.52;59.15
76592;BME280;65481;47.600;19.682;2024-03-23T17:53:18;98994.09;;;15.53;59.10
76592;BME280;65481;47.600;19.682;2024-03-23T17:58:19;99066.25;;;15.46;60.04
76592;BME280;65481;47.600;19.682;2024-03-23T18:03:19;99068.69;;;15.04;64.09
76592;BME280;65481;47.600;19.682;2024-03-23T18:08:19;99074.13;;;14.69;65.81
76592;BME280;65481;47.600;19.682;2024-03-23T18:13:20;99084.31;;;14.33;66.69
76592;BME280;65481;47.600;19.682;2024-03-23T18:18:21;99086.97;;;14.03;67.69
76592;BME280;65481;47.600;19.682;2024-03-23T18:23:21;99079.22;;;13.77;68.62
76592;BME280;65481;47.600;19.682;2024-03-23T18:28:22;99076.16;;;13.60;69.65
76592;BME280;65481;47.600;19.682;2024-03-23T18:33:24;99090.56;;;13.43;70.63
76592;BME280;65481;47.600;19.682;2024-03-23T18:38:24;99087.72;;;13.24;71.42
76592;BME280;65481;47.600;19.682;2024-03-23T18:43:25;99091.81;;;13.01;72.05
76592;BME280;65481;47.600;19.682;2024-03-23T18:48:28;99082.88;;;12.81;73.86
76592;BME280;65481;47.600;19.682;2024-03-23T18:53:28;99095.16;;;12.51;76.21
76592;BME280;65481;47.600;19.682;2024-03-23T18:58:29;99110.00;;;12.37;78.05
76592;BME280;65481;47.600;19.682;2024-03-23T19:03:33;99117.97;;;12.21;80.51
76592;BME280;65481;47.600;19.682;2024-03-23T19:08:34;99107.34;;;11.95;84.47
76592;BME280;65481;47.600;19.682;2024-03-23T19:13:34;99105.75;;;11.74;87.54
76592;BME280;65481;47.600;19.682;2024-03-23T19:18:35;99103.88;;;11.64;89.08
76592;BME280;65481;47.600;19.682;2024-03-23T19:23:35;99114.44;;;11.54;88.94
76592;BME280;65481;47.600;19.682;2024-03-23T19:28:36;99124.44;;;11.36;86.86
76592;BME280;65481;47.600;19.682;2024-03-23T19:33:37;99103.50;;;11.19;84.18
76592;BME280;65481;47.600;19.682;2024-03-23T19:38:37;99093.94;;;11.02;82.86
76592;BME280;65481;47.600;19.682;2024-03-23T19:43:38;99084.41;;;10.91;82.86
76592;BME280;65481;47.600;19.682;2024-03-23T19:48:38;99092.78;;;10.78;83.05
76592;BME280;65481;47.600;19.682;2024-03-23T19:53:39;99091.97;;;10.72;83.68
76592;BME280;65481;47.600;19.682;2024-03-23T19:58:40;99093.50;;;10.63;83.67
76592;BME280;65481;47.600;19.682;2024-03-23T20:03:40;99086.69;;;10.67;83.71
76592;BME280;65481;47.600;19.682;2024-03-23T20:08:44;99092.47;;;10.64;85.18
76592;BME280;65481;47.600;19.682;2024-03-23T20:13:45;99128.34;;;10.70;83.32
76592;BME280;65481;47.600;19.682;2024-03-23T20:18:45;99128.13;;;10.71;82.63
76592;BME280;65481;47.600;19.682;2024-03-23T20:23:46;99139.88;;;10.53;79.87
76592;BME280;65481;47.600;19.682;2024-03-23T20:28:46;99136.63;;;10.41;77.51
76592;BME280;65481;47.600;19.682;2024-03-23T20:33:47;99135.13;;;10.23;79.38
76592;BME280;65481;47.600;19.682;2024-03-23T20:38:48;99153.44;;;10.02;82.93
76592;BME280;65481;47.600;19.682;2024-03-23T20:43:49;99191.38;;;9.74;84.17
76592;BME280;65481;47.600;19.682;2024-03-23T20:48:49;99200.28;;;9.45;87.35
76592;BME280;65481;47.600;19.682;2024-03-23T20:53:50;99202.34;;;9.21;92.95
76592;BME280;65481;47.600;19.682;2024-03-23T20:58:50;99206.63;;;8.88;100.00
76592;BME280;65481;47.600;19.682;2024-03-23T21:03:51;99209.09;;;8.60;100.00
76592;BME280;65481;47.600;19.682;2024-03-23T21:08:52;99206.28;;;8.33;100.00
76592;BME280;65481;47.600;19.682;2024-03-23T21:13:53;99213.13;;;8.17;100.00
76592;BME280;65481;47.600;19.682;2024-03-23T21:18:54;99227.19;;;8.11;100.00
76592;BME280;65481;47.600;19.682;2024-03-23T21:23:56;99210.22;;;8.01;100.00
76592;BME280;65481;47.600;19.682;2024-03-23T21:28:57;99200.25;;;7.86;100.00
76592;BME280;65481;47.600;19.682;2024-03-23T21:33:58;99194.78;;;7.76;100.00
76592;BME280;65481;47.600;19.682;2024-03-23T21:38:59;99194.00;;;7.76;100.00
76592;BME280;65481;47.600;19.682;2024-03-23T21:44:00;99193.44;;;7.73;100.00
76592;BME280;65481;47.600;19.682;2024-03-23T21:49:00;99191.38;;;7.76;100.00
76592;BME280;65481;47.600;19.682;2024-03-23T21:54:02;99178.25;;;7.76;100.00
76592;BME280;65481;47.600;19.682;2024-03-23T21:59:03;99186.69;;;7.78;100.00
76592;BME280;65481;47.600;19.682;2024-03-23T22:04:03;99195.03;;;7.75;100.00
76592;BME280;65481;47.600;19.682;2024-03-23T22:09:04;99180.09;;;7.75;100.00
76592;BME280;65481;47.600;19.682;2024-03-23T22:14:05;99184.84;;;7.78;100.00
76592;BME280;65481;47.600;19.682;2024-03-23T22:19:05;99199.00;;;7.77;100.00
76592;BME280;65481;47.600;19.682;2024-03-23T22:24:06;99190.75;;;7.85;100.00
76592;BME280;65481;47.600;19.682;2024-03-23T22:29:06;99181.03;;;7.86;100.00
76592;BME280;65481;47.600;19.682;2024-03-23T22:34:08;99199.31;;;7.93;100.00
76592;BME280;65481;47.600;19.682;2024-03-23T22:39:08;99182.28;;;7.95;100.00
76592;BME280;65481;47.600;19.682;2024-03-23T22:44:09;99191.75;;;7.96;100.00
76592;BME280;65481;47.600;19.682;2024-03-23T22:49:10;99214.69;;;8.01;100.00
76592;BME280;65481;47.600;19.682;2024-03-23T22:54:11;99247.19;;;8.12;100.00
76592;BME280;65481;47.600;19.682;2024-03-23T22:59:12;99257.19;;;8.27;100.00
76592;BME280;65481;47.600;19.682;2024-03-23T23:04:12;99280.22;;;8.37;97.75
76592;BME280;65481;47.600;19.682;2024-03-23T23:09:13;99258.47;;;8.41;94.96
76592;BME280;65481;47.600;19.682;2024-03-23T23:14:13;99236.16;;;8.44;89.65
76592;BME280;65481;47.600;19.682;2024-03-23T23:19:14;99225.78;;;8.49;85.85
76592;BME280;65481;47.600;19.682;2024-03-23T23:24:15;99224.25;;;8.53;82.62
76592;BME280;65481;47.600;19.682;2024-03-23T23:29:15;99228.50;;;8.54;81.96
76592;BME280;65481;47.600;19.682;2024-03-23T23:34:16;99211.13;;;8.53;81.50
76592;BME280;65481;47.600;19.682;2024-03-23T23:39:16;99200.66;;;8.58;81.28
76592;BME280;65481;47.600;19.682;2024-03-23T23:44:16;99180.44;;;8.59;80.89
76592;BME280;65481;47.600;19.682;2024-03-23T23:49:17;99148.31;;;8.57;79.81
76592;BME280;65481;47.600;19.682;2024-03-23T23:54:17;99119.31;;;8.52;79.48
76592;BME280;65481;47.600;19.682;2024-03-23T23:59:18;99134.91;;;8.58;79.72
